Danbury, Connecticut
Current Conditions -  °F | °C
As of 10:53 AM on Thursday 23 Oct 2014 (Local Time) from KDXR Reporting Station
Overcast Overcast  
Wind Chill: 44°   Ceiling: 1600
Heat Index: 48°   Visibility: 10mi
Dew Point: 43°   Wind: 8mph
Humidity: 83%   Direction: 330°NNW
Pressure: 29.72"   Gusts: NA
Location:  41.39°N, 73.45°W
Report Text: KDXR 231453Z 33007KT 10SM OVC016 09/06 A2972 RMK AO2 RAB06E38 SLP062 P0002 60002 T00890061 55001
Loading
Personal Weather Stations






























Interactive Weather Map
Tropical Storm Tracking
New forecast layout! Learn more

10-Day Weather Forecast

Advertisements
Track Severe Weather on mobile